RJER(METAR)
12/11 16:00
RJER 110700Z 26014KT 9999 FEW015 SCT025 BKN030 M05/M11 Q1024 RMK
A3024=
戻る
トップページへ戻る
IMOC Co,.Ltd.